createdAt,value
2023-10-23T00:00:29.802Z,50.30
2023-10-23T00:05:52.851Z,50.50
2023-10-23T00:10:55.868Z,52.50
2023-10-23T00:15:58.972Z,42.00
2023-10-23T00:21:02.087Z,42.50
2023-10-23T00:26:07.140Z,39.50
2023-10-23T00:31:10.165Z,42.60
2023-10-23T00:36:13.350Z,38.80
2023-10-23T00:41:16.554Z,39.20
2023-10-23T00:46:21.510Z,29.00
2023-10-23T00:51:24.606Z,23.20
2023-10-23T00:56:28.627Z,24.80
2023-10-23T01:01:34.428Z,29.90
2023-10-23T01:06:37.592Z,33.00
2023-10-23T01:11:40.553Z,28.70
2023-10-23T01:16:43.560Z,26.40
2023-10-23T01:21:46.590Z,27.80
2023-10-23T01:26:49.991Z,29.40
2023-10-23T01:31:52.900Z,28.80
2023-10-23T01:36:55.895Z,25.60
2023-10-23T01:41:59.003Z,25.10
2023-10-23T01:47:02.005Z,25.60
2023-10-23T01:52:05.751Z,21.50
2023-10-23T01:57:08.939Z,21.30
2023-10-23T02:02:12.374Z,19.50
2023-10-23T02:07:15.363Z,20.40
2023-10-23T02:12:18.405Z,21.80
2023-10-23T02:17:21.978Z,18.20
2023-10-23T02:22:25.426Z,20.80
2023-10-23T02:27:28.536Z,19.30
2023-10-23T02:32:31.656Z,15.60
2023-10-23T02:37:34.831Z,18.60
2023-10-23T02:42:38.181Z,16.50
2023-10-23T02:47:41.476Z,13.50
2023-10-23T02:52:44.573Z,16.70
2023-10-23T02:57:47.738Z,16.10
2023-10-23T03:02:51.310Z,18.90
2023-10-23T03:07:54.926Z,19.50
2023-10-23T03:13:01.408Z,16.10
2023-10-23T03:18:06.709Z,16.10
2023-10-23T03:23:09.984Z,15.70
2023-10-23T03:28:13.251Z,16.60
2023-10-23T03:33:16.510Z,17.20
2023-10-23T03:38:19.726Z,17.50
2023-10-23T03:43:22.726Z,16.30
2023-10-23T03:48:25.852Z,16.10
2023-10-23T03:53:29.163Z,19.80
2023-10-23T03:58:32.266Z,22.20
2023-10-23T04:03:35.357Z,20.30
2023-10-23T04:08:39.085Z,20.30
2023-10-23T04:13:42.406Z,24.90
2023-10-23T04:18:45.738Z,26.40
2023-10-23T04:23:48.928Z,29.40
2023-10-23T04:28:52.152Z,21.20
2023-10-23T04:33:55.373Z,21.80
2023-10-23T04:38:58.469Z,19.20
2023-10-23T04:44:01.654Z,17.30
2023-10-23T04:49:05.228Z,16.30
2023-10-23T04:54:08.527Z,26.60
2023-10-23T04:59:11.623Z,27.10
2023-10-23T05:04:14.932Z,25.90
2023-10-23T05:09:18.161Z,27.30
2023-10-23T05:14:21.279Z,37.90
2023-10-23T05:19:24.210Z,35.30
2023-10-23T05:24:28.307Z,40.80
2023-10-23T05:29:31.413Z,28.20
2023-10-23T05:34:35.073Z,29.30
2023-10-23T05:39:38.436Z,32.10
2023-10-23T05:44:41.993Z,27.50
2023-10-23T05:49:45.267Z,33.70
2023-10-23T05:54:48.492Z,28.30
2023-10-23T05:59:51.691Z,26.20
2023-10-23T06:04:55.004Z,24.40
2023-10-23T06:09:59.770Z,27.00
2023-10-23T06:15:03.387Z,24.80
2023-10-23T06:20:07.409Z,24.80
2023-10-23T06:25:10.514Z,30.10
2023-10-23T06:30:13.982Z,25.80
2023-10-23T06:35:17.559Z,22.20
2023-10-23T06:40:20.647Z,21.30
2023-10-23T06:45:25.920Z,25.80
2023-10-23T06:50:34.025Z,29.30
2023-10-23T06:55:37.137Z,30.60
2023-10-23T07:00:40.238Z,23.00
2023-10-23T07:05:43.801Z,28.70
2023-10-23T07:10:46.885Z,32.30
2023-10-23T07:15:53.185Z,25.20
2023-10-23T07:20:58.206Z,23.00
2023-10-23T07:26:05.345Z,25.50
2023-10-23T07:31:10.233Z,19.40
2023-10-23T07:36:14.902Z,20.00
2023-10-23T07:41:18.026Z,20.20
2023-10-23T07:46:21.330Z,21.50
2023-10-23T07:51:24.537Z,23.60
2023-10-23T07:56:27.753Z,20.80
2023-10-23T08:01:30.907Z,23.00
2023-10-23T08:06:34.188Z,23.20
2023-10-23T08:11:37.481Z,22.90
2023-10-23T08:16:40.868Z,22.40
2023-10-23T08:21:44.472Z,20.10
2023-10-23T08:26:47.743Z,21.00
2023-10-23T08:31:51.011Z,21.10
2023-10-23T08:36:54.197Z,21.80
2023-10-23T08:41:58.491Z,26.30
2023-10-23T08:47:01.827Z,24.20
2023-10-23T08:52:11.029Z,21.10
2023-10-23T08:57:16.329Z,27.20
2023-10-23T09:02:19.840Z,28.60
2023-10-23T09:07:23.097Z,24.70
2023-10-23T09:12:37.754Z,20.40
2023-10-23T09:17:42.205Z,25.00
2023-10-23T09:22:48.970Z,20.80
2023-10-23T09:27:53.631Z,20.40
2023-10-23T09:32:56.878Z,24.40
2023-10-23T09:38:00.136Z,18.70
2023-10-23T09:43:03.499Z,20.10
2023-10-23T09:48:07.941Z,18.50
2023-10-23T09:53:12.952Z,17.10
2023-10-23T09:58:18.822Z,12.30
2023-10-23T10:03:24.769Z,12.60
2023-10-23T10:08:34.567Z,11.00
2023-10-23T10:13:38.331Z,13.30
2023-10-23T10:18:44.021Z,13.30
2023-10-23T10:23:47.476Z,14.40
2023-10-23T10:28:56.175Z,12.00
2023-10-23T10:34:28.145Z,11.50
2023-10-23T10:39:54.181Z,11.10
2023-10-23T10:45:14.866Z,10.90
2023-10-23T10:50:40.164Z,9.80
2023-10-23T10:55:46.542Z,12.90
2023-10-23T11:00:49.866Z,14.50
2023-10-23T11:05:54.230Z,15.40
2023-10-23T11:11:01.197Z,10.90
2023-10-23T11:16:06.073Z,14.50
2023-10-23T11:21:10.625Z,11.80
2023-10-23T11:26:13.729Z,12.20
2023-10-23T11:31:16.824Z,14.80
2023-10-23T11:36:22.005Z,21.20
2023-10-23T11:41:28.679Z,14.10
2023-10-23T11:46:32.417Z,10.50
2023-10-23T11:51:35.638Z,9.70
2023-10-23T11:56:38.854Z,9.80
2023-10-23T12:01:43.015Z,12.40
2023-10-23T12:06:46.324Z,11.70
2023-10-23T12:11:50.116Z,10.80
2023-10-23T12:16:53.257Z,11.90
2023-10-23T12:21:56.397Z,17.00
2023-10-23T12:26:59.759Z,47.10
2023-10-23T12:32:05.919Z,99.60
2023-10-23T12:37:09.400Z,26.30
2023-10-23T12:42:12.593Z,24.10
2023-10-23T12:47:15.989Z,24.20
2023-10-23T12:52:20.232Z,17.50
2023-10-23T12:57:23.422Z,15.40
2023-10-23T13:02:27.250Z,23.50
2023-10-23T13:07:30.423Z,13.90
2023-10-23T13:12:33.771Z,15.60
2023-10-23T13:17:36.982Z,14.30
2023-10-23T13:22:40.274Z,15.30
2023-10-23T13:27:50.287Z,16.30
2023-10-23T13:32:53.533Z,21.40
2023-10-23T13:37:56.791Z,14.40
2023-10-23T13:42:59.960Z,17.30
2023-10-23T13:48:04.252Z,27.70
2023-10-23T13:53:09.154Z,28.20
2023-10-23T13:58:12.887Z,19.60
2023-10-23T14:03:16.307Z,28.40
2023-10-23T14:08:19.639Z,19.00
2023-10-23T14:13:38.911Z,14.10
2023-10-23T14:18:42.249Z,48.90
2023-10-23T14:23:45.690Z,25.10
2023-10-23T14:28:48.879Z,30.30
2023-10-23T14:33:52.428Z,24.40
2023-10-23T14:38:55.614Z,32.70
2023-10-23T14:43:59.797Z,23.10
2023-10-23T14:49:04.359Z,34.90
2023-10-23T14:54:07.496Z,90.10
2023-10-23T14:59:10.556Z,113.40
2023-10-23T15:04:13.934Z,61.40
2023-10-23T15:09:17.235Z,75.80
2023-10-23T15:14:20.349Z,70.10
2023-10-23T15:19:23.827Z,156.30
2023-10-23T15:24:26.976Z,86.70
2023-10-23T15:29:30.293Z,78.50
2023-10-23T15:34:33.805Z,63.20
2023-10-23T15:39:42.170Z,166.40
2023-10-23T15:44:45.659Z,146.60
2023-10-23T15:49:48.875Z,133.40
2023-10-23T15:54:52.226Z,119.00
2023-10-23T15:59:55.317Z,80.30
2023-10-23T16:04:58.406Z,93.60
2023-10-23T16:10:01.967Z,59.60
2023-10-23T16:15:06.019Z,71.10
2023-10-23T16:20:11.081Z,56.30
2023-10-23T16:25:14.286Z,44.00
2023-10-23T16:30:17.439Z,32.80
2023-10-23T16:35:21.732Z,29.20
2023-10-23T16:40:25.084Z,32.40
2023-10-23T16:45:33.077Z,33.20
2023-10-23T16:50:36.536Z,34.90
2023-10-23T16:55:39.746Z,34.30
2023-10-23T17:00:43.084Z,50.10
2023-10-23T17:05:46.147Z,49.00
2023-10-23T17:10:49.377Z,47.30
2023-10-23T17:15:53.110Z,51.00
2023-10-23T17:20:57.136Z,40.40
2023-10-23T17:26:01.070Z,37.70
2023-10-23T17:31:04.914Z,43.20
2023-10-23T17:36:08.733Z,40.30
2023-10-23T17:41:19.275Z,46.80
2023-10-23T17:51:25.714Z,34.60
2023-10-23T17:56:28.818Z,39.60
2023-10-23T18:01:32.232Z,27.50
2023-10-23T18:06:35.546Z,26.50
2023-10-23T18:11:41.795Z,29.70
2023-10-23T18:16:46.313Z,27.70
2023-10-23T18:21:49.688Z,32.00
2023-10-23T18:26:52.885Z,38.10
2023-10-23T18:31:56.039Z,30.90
2023-10-23T18:36:59.154Z,34.20
2023-10-23T18:42:02.603Z,27.50
2023-10-23T18:47:08.715Z,30.40
2023-10-23T18:52:12.074Z,31.00
2023-10-23T18:57:15.338Z,29.90
2023-10-23T19:02:18.762Z,70.80
2023-10-23T19:07:22.209Z,162.00
2023-10-23T19:12:25.687Z,54.80
2023-10-23T19:17:39.735Z,48.10
2023-10-23T19:22:44.612Z,46.80
2023-10-23T19:27:47.631Z,57.10
2023-10-23T19:32:52.754Z,43.50
2023-10-23T19:37:56.225Z,45.80
2023-10-23T19:43:13.691Z,40.00
2023-10-23T19:48:17.389Z,40.00
2023-10-23T19:53:21.609Z,28.60
2023-10-23T19:58:26.065Z,27.70
2023-10-23T20:03:29.169Z,43.90
2023-10-23T20:08:32.589Z,28.30
2023-10-23T20:13:36.045Z,20.50
2023-10-23T20:18:40.307Z,22.30
2023-10-23T20:23:43.455Z,17.30
2023-10-23T20:28:46.671Z,16.80
2023-10-23T20:33:52.446Z,18.00
2023-10-23T20:38:56.265Z,20.70
2023-10-23T20:43:59.579Z,20.80
2023-10-23T20:49:03.023Z,22.60
2023-10-23T20:54:06.387Z,30.30
2023-10-23T20:59:10.026Z,32.10
2023-10-23T21:04:13.226Z,27.50
2023-10-23T21:09:16.434Z,23.40
2023-10-23T21:14:19.817Z,15.40
2023-10-23T21:19:23.047Z,45.80
2023-10-23T21:24:26.260Z,46.90
2023-10-23T21:29:29.375Z,31.20
2023-10-23T21:34:32.561Z,27.10
2023-10-23T21:39:35.796Z,27.70
2023-10-23T21:44:38.890Z,40.80
2023-10-23T21:49:42.210Z,81.70
2023-10-23T21:54:46.004Z,47.90
2023-10-23T21:59:49.590Z,53.70
2023-10-23T22:04:53.174Z,147.50
2023-10-23T22:09:56.899Z,48.10
2023-10-23T22:15:00.416Z,32.00
2023-10-23T22:20:04.859Z,43.90
2023-10-23T22:25:09.469Z,33.20
2023-10-23T22:30:12.822Z,29.00
2023-10-23T22:35:15.935Z,16.60
2023-10-23T22:40:19.429Z,15.40
2023-10-23T22:45:22.668Z,18.10
2023-10-23T22:50:26.153Z,25.60
2023-10-23T22:55:29.771Z,19.50
2023-10-23T23:00:33.468Z,17.10
2023-10-23T23:05:40.776Z,20.10
2023-10-23T23:10:44.390Z,19.10
2023-10-23T23:15:51.173Z,18.10
2023-10-23T23:20:57.446Z,18.20
2023-10-23T23:26:00.555Z,11.50
2023-10-23T23:31:03.774Z,16.70
2023-10-23T23:36:07.390Z,17.30
2023-10-23T23:41:10.484Z,19.40
2023-10-23T23:46:13.653Z,14.90
2023-10-23T23:51:17.106Z,21.20
2023-10-23T23:56:20.112Z,18.60
